Time;durP1;ratioP1;P1;durP2;ratioP2;P2;SDS_P1;SDS_P2;PMS_P1;PMS_P2;Temp;Humidity;BMP_temperature;BMP_pressure;BME280_temperature;BME280_humidity;BME280_pressure;Samples;Min_cycle;Max_cycle;Signal;HPM_P1;HPM_P2
2021/04/01 00:01:36;;;;;;;17.17;7.32;;;;;;;;;;5098616;28;20059;-92
2021/04/01 00:04:03;;;;;;;19.15;7.90;;;;;;;;;;5098137;28;20131;-91
2021/04/01 00:06:31;;;;;;;14.73;7.38;;;;;;;;;;5098695;28;20077;-91
2021/04/01 00:08:58;;;;;;;17.05;7.38;;;;;;;;;;5098338;28;20059;-91
2021/04/01 00:11:25;;;;;;;17.38;7.75;;;;;;;;;;5098201;28;20058;-90
2021/04/01 00:16:40;;;;;;;17.95;8.23;;;;;;;;;;5101646;28;20430;-90
2021/04/01 00:19:07;;;;;;;14.60;7.55;;;;;;;;;;5098525;28;20134;-90
2021/04/01 00:21:35;;;;;;;15.38;6.88;;;;;;;;;;5098096;28;20058;-93
2021/04/01 00:24:02;;;;;;;16.95;8.85;;;;;;;;;;5097925;28;20105;-92
2021/04/01 00:26:28;;;;;;;15.43;7.40;;;9.50;99.90;;;;;;5098313;28;20104;-91
2021/04/01 00:38:32;;;;;;;15.38;6.82;;;;;;;;;;5101808;28;20518;-89
2021/04/01 00:47:25;;;;;;;16.75;5.97;;;;;;;;;;5098588;28;20133;-91
2021/04/01 01:17:57;;;;;;;12.90;5.30;;;;;;;;;;5038191;28;20096;-90
2021/04/01 01:20:24;;;;;;;8.90;5.38;;;;;;;;;;5037099;28;20063;-87
2021/04/01 01:26:16;;;;;;;12.75;5.32;;;;;;;;;;5018261;28;20049;-87
2021/04/01 01:28:42;;;;;;;10.10;5.07;;;;;;;;;;5016881;28;20061;-89
2021/04/01 01:31:10;;;;;;;11.85;5.43;;;;;;;;;;5016772;28;20054;-90
2021/04/01 01:33:41;;;;;;;9.55;5.15;;;;;;;;;;5023900;28;20049;-90
2021/04/01 01:36:08;;;;;;;8.48;3.88;;;;;;;;;;5036561;28;20481;-91
2021/04/01 01:38:35;;;;;;;8.85;4.60;;;;;;;;;;5036603;28;20064;-89
2021/04/01 01:41:04;;;;;;;8.20;4.53;;;;;;;;;;5036795;28;20133;-90
2021/04/01 01:43:33;;;;;;;12.32;4.43;;;;;;;;;;5037230;28;20063;-90
2021/04/01 01:46:03;;;;;;;12.77;5.30;;;;;;;;;;5036452;28;20083;-90
2021/04/01 02:05:09;;;;;;;9.88;3.58;;;;;;;;;;5023739;28;20367;-89
2021/04/01 03:34:43;;;;;;;20.25;3.60;;;;;;;;;;5005931;28;20081;-88
2021/04/01 03:37:10;;;;;;;8.55;3.30;;;;;;;;;;5000118;28;20054;-89
2021/04/01 03:39:37;;;;;;;10.48;3.92;;;9.10;99.90;;;;;;4999588;28;20062;-91
2021/04/01 03:42:04;;;;;;;12.32;4.05;;;9.10;99.90;;;;;;4999298;28;20064;-90
2021/04/01 03:44:31;;;;;;;7.43;3.15;;;;;;;;;;4999189;28;20054;-89
2021/04/01 03:56:51;;;;;;;12.70;3.75;;;;;;;;;;5004228;28;20049;-88
2021/04/01 03:59:21;;;;;;;10.10;3.55;;;;;;;;;;4999095;28;20141;-90
2021/04/01 06:45:25;;;;;;;1.98;0.70;;;;;;;;;;4996047;28;20057;-86
2021/04/01 06:47:55;;;;;;;5.32;1.13;;;8.60;99.90;;;;;;4995520;28;20069;-86
2021/04/01 06:50:24;;;;;;;1.55;0.65;;;8.50;99.90;;;;;;4994654;28;20302;-87
2021/04/01 06:52:54;;;;;;;4.47;0.52;;;8.60;99.90;;;;;;4994935;28;20047;-89
2021/04/01 06:55:25;;;;;;;2.25;0.60;;;8.70;99.90;;;;;;4995402;28;20046;-87
2021/04/01 06:58:01;;;;;;;1.52;0.45;;;8.80;99.90;;;;;;4995029;28;20141;-88
2021/04/01 07:00:54;;;;;;;2.70;1.00;;;8.90;99.90;;;;;;4994771;28;20051;-88
2021/04/01 07:03:24;;;;;;;2.08;0.63;;;8.80;99.90;;;;;;4995032;28;20085;-88
2021/04/01 07:05:54;;;;;;;4.57;1.20;;;8.80;99.90;;;;;;4995097;28;20046;-88
2021/04/01 07:08:35;;;;;;;8.60;1.30;;;8.80;99.90;;;;;;4995436;28;20054;-88
2021/04/01 07:11:03;;;;;;;5.07;0.85;;;;;;;;;;4995396;28;20050;-88
2021/04/01 07:13:35;;;;;;;2.65;0.77;;;8.80;99.90;;;;;;4994726;28;20050;-88
2021/04/01 07:16:16;;;;;;;4.63;0.88;;;8.80;99.90;;;;;;4995293;28;20108;-88
2021/04/01 07:48:14;;;;;;;7.78;2.60;;;;;;;;;;4995589;28;20061;-86
2021/04/01 07:50:42;;;;;;;7.88;0.93;;;8.60;99.90;;;;;;4995048;28;20046;-86
2021/04/01 07:56:34;;;;;;;8.43;1.42;;;8.70;99.90;;;;;;4996262;28;20514;-89
2021/04/01 07:59:12;;;;;;;10.50;1.60;;;;;;;;;;4995387;28;20058;-93
2021/04/01 08:01:55;;;;;;;7.30;1.35;;;;;;;;;;5002121;28;20057;-89
2021/04/01 08:04:22;;;;;;;5.95;2.17;;;8.80;99.90;;;;;;4994882;28;20375;-92
2021/04/01 08:06:49;;;;;;;7.82;1.52;;;8.90;99.90;;;;;;4995039;28;20124;-86
2021/04/01 08:09:19;;;;;;;2.53;0.90;;;9.00;99.90;;;;;;4994789;28;20046;-87
2021/04/01 08:11:50;;;;;;;1.98;0.90;;;;;;;;;;4994476;28;20100;-87
2021/04/01 08:14:19;;;;;;;9.23;1.42;;;8.90;99.90;;;;;;4994438;28;20182;-88
2021/04/01 08:16:50;;;;;;;3.80;1.00;;;9.00;99.90;;;;;;4996499;28;20077;-87
2021/04/01 08:19:20;;;;;;;6.43;0.93;;;9.00;99.90;;;;;;4998406;28;20466;-88
2021/04/01 08:21:49;;;;;;;9.43;1.98;;;9.10;99.90;;;;;;4998055;28;20051;-88
2021/04/01 08:24:21;;;;;;;4.80;1.00;;;9.00;99.90;;;;;;4998118;28;20046;-87
2021/04/01 08:27:05;;;;;;;2.30;0.82;;;9.20;99.90;;;;;;4997833;28;20097;-88
2021/04/01 08:30:28;;;;;;;5.43;1.13;;;9.30;99.90;;;;;;4998208;28;20046;-86
2021/04/01 08:32:59;;;;;;;2.45;1.00;;;9.30;99.90;;;;;;4997544;28;20054;-88
2021/04/01 08:35:26;;;;;;;2.75;0.65;;;9.40;99.90;;;;;;4997508;28;20042;-88
2021/04/01 08:38:07;;;;;;;2.25;0.65;;;9.70;99.90;;;;;;4997446;28;20054;-87
2021/04/01 08:40:33;;;;;;;1.05;0.40;;;9.60;99.90;;;;;;4997765;28;20349;-88
2021/04/01 08:43:38;;;;;;;3.75;0.80;;;9.70;99.90;;;;;;4997656;28;20141;-88
2021/04/01 08:46:15;;;;;;;5.68;1.38;;;10.00;99.90;;;;;;4979761;28;20060;-87
2021/04/01 08:48:51;;;;;;;1.05;0.40;;;10.10;99.90;;;;;;4997526;28;20141;-88
2021/04/01 08:51:25;;;;;;;6.38;1.05;;;10.20;99.90;;;;;;4997454;28;20050;-87
2021/04/01 08:53:59;;;;;;;1.48;0.65;;;10.30;99.90;;;;;;4997474;28;20498;-87
2021/04/01 08:56:31;;;;;;;3.35;0.60;;;;;;;;;;4997422;28;20050;-88
2021/04/01 08:59:02;;;;;;;3.42;1.20;;;10.40;99.90;;;;;;4997375;28;20565;-88
2021/04/01 09:01:30;;;;;;;3.83;0.80;;;10.40;99.90;;;;;;4997636;28;20547;-88
2021/04/01 09:03:58;;;;;;;7.95;1.13;;;10.50;99.90;;;;;;4996956;28;20467;-88
2021/04/01 09:06:25;;;;;;;11.60;1.85;;;10.50;99.90;;;;;;4997182;28;20050;-89
2021/04/01 09:08:55;;;;;;;3.85;0.88;;;10.30;99.90;;;;;;4997384;28;20422;-87
2021/04/01 09:11:33;;;;;;;2.15;0.75;;;;;;;;;;4997506;28;20434;-88
2021/04/01 09:14:01;;;;;;;3.20;0.88;;;;;;;;;;4997065;28;20061;-88
2021/04/01 09:16:29;;;;;;;3.42;0.68;;;10.20;99.90;;;;;;4997162;28;20050;-88
2021/04/01 09:19:02;;;;;;;2.15;0.60;;;;;;;;;;4997045;28;20046;-87
2021/04/01 09:21:31;;;;;;;5.35;1.08;;;10.30;99.90;;;;;;4997155;28;20054;-88
2021/04/01 09:24:00;;;;;;;4.30;1.13;;;;;;;;;;4993169;28;20607;-87
2021/04/01 09:26:27;;;;;;;4.72;0.85;;;10.60;99.90;;;;;;4993433;28;20057;-88
2021/04/01 09:29:02;;;;;;;8.05;1.52;;;10.60;99.90;;;;;;4996769;28;20058;-88
2021/04/01 09:31:36;;;;;;;4.15;1.23;;;10.60;99.90;;;;;;4996635;28;20057;-88
2021/04/01 09:34:02;;;;;;;2.83;1.02;;;10.60;99.90;;;;;;4996173;28;20069;-88
2021/04/01 09:36:37;;;;;;;12.50;1.85;;;10.70;99.90;;;;;;4996673;28;20383;-88
2021/04/01 09:39:18;;;;;;;4.50;1.00;;;11.00;99.90;;;;;;4996812;28;20084;-88
2021/04/01 09:41:45;;;;;;;1.65;0.75;;;10.90;99.90;;;;;;4996389;28;20050;-88
2021/04/01 09:44:12;;;;;;;4.97;1.33;;;11.10;99.90;;;;;;4996658;28;20137;-88
2021/04/01 09:46:51;;;;;;;2.97;1.25;;;11.20;99.90;;;;;;4996407;28;20062;-88
2021/04/01 09:49:18;;;;;;;1.95;0.95;;;11.10;99.90;;;;;;4996468;28;20046;-88
2021/04/01 09:51:44;;;;;;;1.88;0.90;;;11.20;99.90;;;;;;4996357;28;20054;-88
2021/04/01 09:54:17;;;;;;;1.70;1.10;;;;;;;;;;4995451;28;20051;-88
2021/04/01 09:56:53;;;;;;;8.05;1.00;;;11.30;99.90;;;;;;4996035;28;20136;-88
2021/04/01 09:59:21;;;;;;;7.47;0.85;;;11.30;99.90;;;;;;4996176;28;20054;-87
2021/04/01 10:01:47;;;;;;;3.78;0.90;;;11.40;99.90;;;;;;4996028;28;20521;-87
2021/04/01 10:04:17;;;;;;;2.38;0.90;;;11.40;99.90;;;;;;4994085;28;20054;-87
2021/04/01 10:06:45;;;;;;;3.03;1.25;;;11.40;99.90;;;;;;4996284;28;20093;-88
2021/04/01 10:09:13;;;;;;;2.92;1.00;;;;;;;;;;4995981;28;20066;-87
2021/04/01 10:11:44;;;;;;;2.97;0.95;;;;;;;;;;4995705;28;20057;-87
2021/04/01 10:14:11;;;;;;;3.25;0.95;;;11.20;99.90;;;;;;4996130;28;20364;-87
2021/04/01 10:16:48;;;;;;;1.65;1.20;;;11.30;99.90;;;;;;4995767;28;20058;-86
2021/04/01 10:19:14;;;;;;;6.18;0.80;;;11.20;99.90;;;;;;4995778;28;20526;-87
2021/04/01 10:21:44;;;;;;;4.72;0.80;;;11.10;99.90;;;;;;4995784;28;20051;-87
2021/04/01 10:24:23;;;;;;;4.20;1.05;;;11.10;99.90;;;;;;4995784;28;20059;-87
2021/04/01 10:26:58;;;;;;;3.97;1.27;;;11.10;99.90;;;;;;4995728;28;20479;-87
2021/04/01 10:29:30;;;;;;;2.65;1.75;;;11.10;99.90;;;;;;4995829;28;20435;-85
2021/04/01 10:31:58;;;;;;;3.33;1.75;;;11.00;99.90;;;;;;4995273;28;20102;-87
2021/04/01 10:34:34;;;;;;;3.75;0.93;;;10.90;99.90;;;;;;4994579;28;20463;-87
2021/04/01 10:37:01;;;;;;;3.08;1.70;;;10.90;99.90;;;;;;4995468;28;20471;-87
2021/04/01 10:39:32;;;;;;;5.68;1.75;;;10.90;99.90;;;;;;4994979;28;20542;-87
2021/04/01 10:42:00;;;;;;;7.53;2.30;;;;;;;;;;4995439;28;20058;-88
2021/04/01 10:44:26;;;;;;;5.55;2.35;;;10.90;99.90;;;;;;4995493;28;20097;-87
2021/04/01 10:46:54;;;;;;;6.88;2.20;;;10.90;99.90;;;;;;4995370;28;20464;-86
2021/04/01 10:49:22;;;;;;;4.43;1.83;;;11.00;99.90;;;;;;4995453;28;20046;-88
2021/04/01 10:51:52;;;;;;;14.13;4.45;;;11.10;99.90;;;;;;4995499;28;20057;-87
2021/04/01 10:54:19;;;;;;;7.60;3.03;;;11.00;99.90;;;;;;4995649;28;20052;-87
2021/04/01 10:56:46;;;;;;;5.75;1.50;;;10.90;99.90;;;;;;4995127;28;20057;-87
2021/04/01 10:59:14;;;;;;;6.80;2.40;;;;;;;;;;4995436;28;20088;-87
2021/04/01 11:01:42;;;;;;;6.47;3.00;;;11.20;99.90;;;;;;4994903;28;20445;-86
2021/04/01 11:04:10;;;;;;;4.75;2.10;;;11.30;99.90;;;;;;4994888;28;20051;-87
2021/04/01 11:06:37;;;;;;;4.18;2.00;;;11.20;99.90;;;;;;4995236;28;20197;-87
2021/04/01 11:09:04;;;;;;;5.85;2.05;;;;;;;;;;4995130;28;20052;-87
2021/04/01 11:11:45;;;;;;;7.72;2.00;;;11.20;99.90;;;;;;4995191;28;20054;-87
2021/04/01 11:14:11;;;;;;;10.85;3.05;;;11.20;99.90;;;;;;4995195;28;20086;-86
2021/04/01 11:16:39;;;;;;;4.63;2.10;;;;;;;;;;4994978;28;20058;-87
2021/04/01 11:19:06;;;;;;;8.80;3.08;;;11.00;99.90;;;;;;4995230;28;20046;-87
2021/04/01 11:21:33;;;;;;;9.02;2.50;;;10.90;99.90;;;;;;4994975;28;20057;-87
2021/04/01 11:24:00;;;;;;;6.75;2.60;;;10.90;99.90;;;;;;4994572;28;20380;-88
2021/04/01 11:26:28;;;;;;;4.10;2.72;;;10.80;99.90;;;;;;4994536;28;20065;-87
2021/04/01 11:28:54;;;;;;;16.02;3.20;;;10.80;99.90;;;;;;4994961;28;20064;-84
2021/04/01 11:31:22;;;;;;;5.45;2.40;;;;;;;;;;4994877;28;20054;-87
2021/04/01 11:33:49;;;;;;;9.13;2.83;;;;;;;;;;4994428;28;20531;-86
2021/04/01 11:36:18;;;;;;;3.88;2.40;;;;;;;;;;4993116;28;20046;-87
2021/04/01 11:38:49;;;;;;;7.60;2.22;;;11.10;99.90;;;;;;4995061;28;20065;-87
2021/04/01 11:41:16;;;;;;;6.00;2.47;;;11.10;99.90;;;;;;4994981;28;20065;-87
2021/04/01 11:43:43;;;;;;;6.45;2.92;;;;;;;;;;4994838;28;20057;-86
2021/04/01 11:46:19;;;;;;;9.80;3.35;;;10.90;99.90;;;;;;4994896;28;20378;-87
2021/04/01 11:48:46;;;;;;;8.85;2.83;;;10.90;99.90;;;;;;4994684;28;20138;-86
2021/04/01 11:51:18;;;;;;;8.88;3.67;;;11.10;99.90;;;;;;4997516;28;20105;-87
2021/04/01 11:53:45;;;;;;;9.98;3.95;;;;;;;;;;4998491;28;20066;-87
2021/04/01 11:56:12;;;;;;;5.82;2.70;;;;;;;;;;4998686;28;20058;-86
2021/04/01 11:58:39;;;;;;;7.88;2.80;;;11.20;99.90;;;;;;4998744;28;20050;-87
2021/04/01 12:01:07;;;;;;;8.63;2.92;;;11.30;99.90;;;;;;4998452;28;20054;-86
2021/04/01 12:03:45;;;;;;;11.88;3.35;;;11.20;99.90;;;;;;4998361;28;20097;-87
2021/04/01 12:06:12;;;;;;;8.98;3.25;;;11.40;99.90;;;;;;4998622;28;20050;-87
2021/04/01 12:08:40;;;;;;;6.38;2.95;;;;;;;;;;4998056;28;20054;-86
2021/04/01 12:11:07;;;;;;;6.85;3.20;;;11.30;99.90;;;;;;4997741;28;20057;-87
2021/04/01 12:13:34;;;;;;;7.30;2.67;;;11.30;99.90;;;;;;4998237;28;20050;-86
2021/04/01 12:16:00;;;;;;;8.93;3.15;;;11.30;99.90;;;;;;4998061;28;20058;-87
2021/04/01 12:18:38;;;;;;;10.43;3.25;;;11.30;99.90;;;;;;4998167;28;20058;-86
2021/04/01 12:21:05;;;;;;;10.10;3.03;;;11.40;99.90;;;;;;4998176;28;20058;-86
2021/04/01 12:23:41;;;;;;;6.32;3.30;;;11.40;99.90;;;;;;4998108;28;20057;-87
2021/04/01 12:26:08;;;;;;;9.85;3.17;;;11.50;99.90;;;;;;4998259;28;20047;-85
2021/04/01 12:28:36;;;;;;;9.25;4.20;;;;;;;;;;4999332;28;20120;-95
2021/04/01 12:31:03;;;;;;;7.15;3.10;;;;;;;;;;5004135;28;20050;-94
2021/04/01 12:33:30;;;;;;;6.20;3.25;;;;;;;;;;4998120;28;20082;-93
2021/04/01 12:35:57;;;;;;;9.25;4.05;;;11.50;99.90;;;;;;4998596;28;20050;-88
2021/04/01 12:38:29;;;;;;;9.85;3.60;;;;;;;;;;4998739;28;20127;-94
2021/04/01 12:40:57;;;;;;;11.60;3.92;;;;;;;;;;4997332;28;20062;-90
2021/04/01 12:43:29;;;;;;;7.78;3.95;;;11.70;99.90;;;;;;4997538;28;20442;-89
2021/04/01 12:45:56;;;;;;;14.10;4.65;;;;;;;;;;4997405;28;20046;-89
2021/04/01 12:48:23;;;;;;;8.60;4.43;;;11.60;99.90;;;;;;4997561;28;20164;-90
2021/04/01 12:50:51;;;;;;;7.32;3.50;;;11.50;99.90;;;;;;4997824;28;20061;-90
2021/04/01 12:53:18;;;;;;;7.00;3.65;;;11.50;99.90;;;;;;4997106;28;20481;-85
2021/04/01 12:55:48;;;;;;;10.63;3.28;;;11.50;99.90;;;;;;4997321;28;20057;-85
2021/04/01 12:58:27;;;;;;;12.65;2.70;;;;;;;;;;4997114;28;20159;-86
2021/04/01 13:00:55;;;;;;;9.85;3.33;;;11.20;99.90;;;;;;4997391;28;20058;-86
2021/04/01 13:03:22;;;;;;;9.30;3.08;;;;;;;;;;4996578;28;20046;-86
2021/04/01 13:05:52;;;;;;;8.65;3.45;;;11.00;99.90;;;;;;4997321;28;20054;-86
2021/04/01 13:11:15;;;;;;;8.23;2.78;;;11.00;99.90;;;;;;4998078;28;20502;-96
2021/04/01 13:13:43;;;;;;;9.65;3.10;;;10.80;99.90;;;;;;4997549;28;20463;-96
2021/04/01 13:16:10;;;;;;;7.28;2.92;;;10.80;99.90;;;;;;4997674;28;20046;-94
2021/04/01 13:18:37;;;;;;;13.15;3.88;;;10.90;99.90;;;;;;4997617;28;20062;-96
2021/04/01 13:21:04;;;;;;;8.50;3.30;;;11.00;99.90;;;;;;4997715;28;20054;-96
2021/04/01 13:23:34;;;;;;;5.63;3.05;;;;;;;;;;4997595;28;20064;-95
2021/04/01 13:26:01;;;;;;;6.82;4.22;;;;;;;;;;4997412;28;20050;-96
2021/04/01 13:28:27;;;;;;;12.70;4.82;;;;;;;;;;4997723;28;20050;-95
2021/04/01 13:30:59;;;;;;;9.02;3.38;;;11.20;99.90;;;;;;4997426;28;20108;-95
2021/04/01 13:33:42;;;;;;;12.13;3.25;;;11.20;99.90;;;;;;4997106;28;20379;-95
2021/04/01 13:36:18;;;;;;;12.75;3.30;;;11.20;99.90;;;;;;4996925;28;20050;-93
2021/04/01 13:38:44;;;;;;;11.75;3.65;;;11.30;99.90;;;;;;4997206;28;20132;-95
2021/04/01 13:41:14;;;;;;;15.45;3.65;;;11.30;99.90;;;;;;4997264;28;20046;-96
2021/04/01 13:43:42;;;;;;;8.20;3.42;;;;;;;;;;4997365;28;20054;-93
2021/04/01 13:46:09;;;;;;;11.75;3.38;;;11.30;99.90;;;;;;4997310;28;20077;-95
2021/04/01 13:48:36;;;;;;;10.43;3.80;;;11.10;99.90;;;;;;4996987;28;20050;-96
2021/04/01 13:51:07;;;;;;;10.38;4.07;;;;;;;;;;4997333;28;20050;-94
2021/04/01 13:53:43;;;;;;;8.00;3.30;;;;;;;;;;4997005;28;20077;-95
2021/04/01 13:56:16;;;;;;;11.38;4.80;;;11.30;99.90;;;;;;4996927;28;20061;-94
2021/04/01 13:59:17;;;;;;;17.05;3.10;;;11.30;99.90;;;;;;4997253;28;20412;-95
2021/04/01 14:09:57;;;;;;;12.77;4.07;;;11.50;99.90;;;;;;4996607;28;20403;-94
2021/04/01 14:12:24;;;;;;;10.02;3.15;;;11.40;99.90;;;;;;4996768;28;20149;-95
2021/04/01 14:14:51;;;;;;;18.67;5.18;;;;;;;;;;4995708;28;20474;-95
2021/04/01 14:17:19;;;;;;;6.25;2.88;;;;;;;;;;4996584;28;20054;-94
2021/04/01 14:19:45;;;;;;;12.60;3.28;;;11.30;99.90;;;;;;4996604;28;20054;-95
2021/04/01 14:22:12;;;;;;;14.88;2.95;;;11.30;99.90;;;;;;4996436;28;20062;-95
2021/04/01 14:24:42;;;;;;;6.43;3.15;;;11.30;99.90;;;;;;4996806;28;20141;-96
2021/04/01 14:27:11;;;;;;;10.63;3.38;;;11.30;99.90;;;;;;4996587;28;20129;-96
2021/04/01 14:29:39;;;;;;;14.27;3.88;;;11.50;99.90;;;;;;4996324;28;20439;-94
2021/04/01 14:32:06;;;;;;;11.02;3.25;;;;;;;;;;5000266;28;20060;-86
2021/04/01 14:34:38;;;;;;;9.80;3.25;;;11.40;99.90;;;;;;5008167;28;20133;-89
2021/04/01 14:37:06;;;;;;;6.93;2.72;;;;;;;;;;5007403;28;20471;-94
2021/04/01 14:39:33;;;;;;;13.90;3.78;;;11.30;99.90;;;;;;5005717;28;20058;-92
2021/04/01 14:42:01;;;;;;;11.02;3.67;;;;;;;;;;4997526;28;20389;-87
2021/04/01 14:44:29;;;;;;;8.65;3.20;;;11.20;99.90;;;;;;5004396;28;20113;-87
2021/04/01 14:46:56;;;;;;;6.82;2.58;;;11.20;99.90;;;;;;5004054;28;20144;-86
2021/04/01 14:49:26;;;;;;;6.70;2.67;;;11.30;99.90;;;;;;5003104;28;20042;-88
2021/04/01 14:51:54;;;;;;;9.90;3.75;;;11.30;99.90;;;;;;4998658;28;20112;-96
2021/04/01 14:54:23;;;;;;;5.22;3.03;;;11.30;99.90;;;;;;4998926;28;20046;-95
2021/04/01 14:56:52;;;;;;;7.68;3.28;;;10.30;99.90;;;;;;4997599;28;20441;-96
2021/04/01 14:59:21;;;;;;;11.23;3.42;;;11.50;99.90;;;;;;4999315;28;20181;-85
2021/04/01 15:01:48;;;;;;;6.72;3.03;;;11.30;99.90;;;;;;4998091;28;20054;-93
2021/04/01 15:04:15;;;;;;;13.02;3.33;;;11.20;99.90;;;;;;4997841;28;20085;-95
2021/04/01 15:06:42;;;;;;;7.78;2.97;;;11.20;99.90;;;;;;4995449;28;20061;-85
2021/04/01 15:09:11;;;;;;;18.45;3.75;;;11.10;99.90;;;;;;4995080;28;20200;-82
2021/04/01 15:11:38;;;;;;;11.23;3.35;;;11.10;99.90;;;;;;4994875;28;20502;-82
2021/04/01 15:14:04;;;;;;;8.80;3.72;;;11.10;99.90;;;;;;4994954;28;20046;-83
2021/04/01 15:16:31;;;;;;;8.93;2.95;;;11.10;99.90;;;;;;4995147;28;20054;-83
2021/04/01 15:18:57;;;;;;;6.93;3.08;;;11.00;99.90;;;;;;4994893;28;20050;-83
2021/04/01 15:21:24;;;;;;;11.23;2.65;;;11.00;99.90;;;;;;4995282;28;20058;-84
2021/04/01 15:23:51;;;;;;;3.92;2.90;;;11.00;99.90;;;;;;4994771;28;20057;-83
2021/04/01 15:26:18;;;;;;;7.45;3.47;;;11.00;99.90;;;;;;4994571;28;20482;-86
2021/04/01 15:28:45;;;;;;;11.15;3.25;;;11.00;99.90;;;;;;4995175;28;20383;-86
2021/04/01 15:31:12;;;;;;;6.20;3.13;;;10.90;99.90;;;;;;4994790;28;20064;-86
2021/04/01 15:33:38;;;;;;;9.70;3.28;;;10.90;99.90;;;;;;4994578;28;20100;-86
2021/04/01 15:36:06;;;;;;;6.18;3.25;;;10.90;99.90;;;;;;4994887;28;20153;-86
2021/04/01 15:38:32;;;;;;;13.13;3.55;;;10.90;99.90;;;;;;4994789;28;20525;-86
2021/04/01 15:40:59;;;;;;;5.35;2.90;;;10.90;99.90;;;;;;4994613;28;20172;-86
2021/04/01 15:43:27;;;;;;;7.88;3.05;;;10.90;99.90;;;;;;4994754;28;20467;-83
2021/04/01 15:45:54;;;;;;;11.68;4.60;;;10.90;99.90;;;;;;4994939;28;20050;-84
2021/04/01 15:48:21;;;;;;;8.32;3.80;;;10.90;99.90;;;;;;4994684;28;20137;-83
2021/04/01 15:50:48;;;;;;;4.32;2.53;;;11.00;99.90;;;;;;4994891;28;20392;-84
2021/04/01 15:53:17;;;;;;;9.25;3.03;;;10.90;99.90;;;;;;4994709;28;20046;-82
2021/04/01 15:55:43;;;;;;;5.60;3.40;;;11.00;99.90;;;;;;4994588;28;20060;-83
2021/04/01 15:58:10;;;;;;;9.68;2.78;;;10.90;99.90;;;;;;4994672;28;20419;-84
2021/04/01 16:00:38;;;;;;;6.72;2.90;;;10.90;99.90;;;;;;4994705;28;20050;-86
2021/04/01 16:03:05;;;;;;;14.13;3.55;;;10.90;99.90;;;;;;4994598;28;20054;-86
2021/04/01 16:05:32;;;;;;;9.55;3.30;;;10.90;99.90;;;;;;4994561;28;20147;-86
2021/04/01 16:07:59;;;;;;;6.65;2.92;;;10.90;99.90;;;;;;4994367;28;20356;-84
2021/04/01 16:10:26;;;;;;;5.18;2.60;;;10.90;99.90;;;;;;4994800;28;20047;-83
2021/04/01 16:12:56;;;;;;;4.93;2.47;;;10.90;99.90;;;;;;4994577;28;20050;-84
2021/04/01 16:15:22;;;;;;;6.20;3.38;;;10.90;99.90;;;;;;4994384;28;20054;-83
2021/04/01 16:17:50;;;;;;;6.70;2.70;;;10.80;99.90;;;;;;4994453;28;20084;-84
2021/04/01 16:20:17;;;;;;;8.65;3.25;;;10.80;99.90;;;;;;4994493;28;20054;-83
2021/04/01 16:22:43;;;;;;;4.95;3.40;;;10.80;99.90;;;;;;5012063;28;20053;-84
2021/04/01 16:25:11;;;;;;;7.05;3.55;;;10.70;99.90;;;;;;5014058;28;20050;-86
2021/04/01 16:27:38;;;;;;;9.13;5.00;;;10.80;99.90;;;;;;5014112;28;20050;-85
2021/04/01 16:30:06;;;;;;;9.35;3.63;;;10.80;99.90;;;;;;5010018;28;20069;-88
2021/04/01 16:32:33;;;;;;;8.15;3.45;;;10.80;99.90;;;;;;5013823;28;20060;-87
2021/04/01 16:35:01;;;;;;;7.13;2.90;;;10.70;99.90;;;;;;5013001;28;20462;-88
2021/04/01 16:37:30;;;;;;;5.55;2.80;;;10.70;99.90;;;;;;5014961;28;20088;-87
2021/04/01 16:39:57;;;;;;;6.32;2.35;;;10.60;99.90;;;;;;5017232;28;20050;-87
2021/04/01 16:42:23;;;;;;;7.35;2.95;;;10.60;99.90;;;;;;5017393;28;20481;-88
2021/04/01 16:44:50;;;;;;;7.57;2.97;;;10.60;99.90;;;;;;5017418;28;20065;-88
2021/04/01 16:47:17;;;;;;;7.07;2.60;;;10.60;99.90;;;;;;5017253;28;20541;-87
2021/04/01 16:49:43;;;;;;;7.25;2.92;;;10.50;99.90;;;;;;5017128;28;20053;-86
2021/04/01 16:52:11;;;;;;;6.40;3.08;;;10.50;99.90;;;;;;5017101;28;20058;-87
2021/04/01 16:54:38;;;;;;;9.73;3.08;;;10.50;99.90;;;;;;5017441;28;20046;-87
2021/04/01 16:57:05;;;;;;;7.30;2.92;;;10.50;99.90;;;;;;5017082;28;20041;-87
2021/04/01 16:59:32;;;;;;;7.00;2.92;;;10.50;99.90;;;;;;5016993;28;20049;-87
2021/04/01 17:01:59;;;;;;;10.00;3.40;;;10.50;99.90;;;;;;5017375;28;20058;-95
2021/04/01 17:04:25;;;;;;;9.77;3.35;;;10.50;99.90;;;;;;5003893;28;20054;-89
2021/04/01 17:06:56;;;;;;;10.45;3.17;;;10.50;99.90;;;;;;4997646;28;20056;-93
2021/04/01 17:09:24;;;;;;;9.68;2.70;;;10.50;99.90;;;;;;4998368;28;20042;-95
2021/04/01 17:11:50;;;;;;;5.90;2.47;;;10.40;99.90;;;;;;4997945;28;20046;-94
2021/04/01 17:14:17;;;;;;;7.35;2.72;;;10.30;99.90;;;;;;4997784;28;20054;-96
2021/04/01 17:16:44;;;;;;;8.77;2.95;;;10.20;99.90;;;;;;4997902;28;20060;-94
2021/04/01 17:19:10;;;;;;;5.55;2.78;;;10.20;99.90;;;;;;4997273;28;20455;-86
2021/04/01 17:21:38;;;;;;;7.22;3.00;;;10.20;99.90;;;;;;4996691;28;20051;-84
2021/04/01 17:24:05;;;;;;;4.75;2.97;;;10.10;99.90;;;;;;4996936;28;20112;-85
2021/04/01 17:26:33;;;;;;;7.22;3.40;;;10.10;99.90;;;;;;4996938;28;20059;-85
2021/04/01 17:28:59;;;;;;;14.85;4.20;;;10.10;99.90;;;;;;4996919;28;20050;-86
2021/04/01 17:31:26;;;;;;;8.50;3.40;;;10.00;99.90;;;;;;4996870;28;20054;-86
2021/04/01 17:33:52;;;;;;;4.60;2.55;;;10.00;99.90;;;;;;5004597;28;20054;-86
2021/04/01 17:36:20;;;;;;;6.75;3.97;;;10.00;99.90;;;;;;5016316;28;20064;-86
2021/04/01 17:38:47;;;;;;;8.05;3.30;;;10.00;99.90;;;;;;5016128;28;20050;-86
2021/04/01 17:41:13;;;;;;;8.13;2.80;;;9.90;99.90;;;;;;5015350;28;20045;-86
2021/04/01 17:43:41;;;;;;;6.60;3.10;;;9.90;99.90;;;;;;5016199;28;20050;-86
2021/04/01 17:46:08;;;;;;;12.05;3.25;;;9.90;99.90;;;;;;5015688;28;20046;-86
2021/04/01 17:48:34;;;;;;;9.88;3.30;;;9.80;99.90;;;;;;5015961;28;20050;-86
2021/04/01 17:51:01;;;;;;;8.23;3.40;;;9.80;99.90;;;;;;5016004;28;20064;-86
2021/04/01 17:53:28;;;;;;;5.30;3.35;;;9.70;99.90;;;;;;5015879;28;20454;-85
2021/04/01 17:55:57;;;;;;;8.57;3.38;;;9.60;99.90;;;;;;5015785;28;20486;-86
2021/04/01 17:58:24;;;;;;;8.52;3.60;;;9.60;99.90;;;;;;5015872;28;20463;-87
2021/04/01 18:00:59;;;;;;;8.95;4.75;;;9.50;99.90;;;;;;5015937;28;20050;-86
2021/04/01 18:03:45;;;;;;;6.72;3.03;;;9.40;99.90;;;;;;5015728;28;20046;-86
2021/04/01 18:09:36;;;;;;;9.15;3.05;;;9.30;99.90;;;;;;5006886;28;20115;-87
2021/04/01 18:25:53;;;;;;;7.72;3.03;;;8.80;99.90;;;;;;4993991;28;20057;-86
2021/04/01 18:28:22;;;;;;;12.75;5.43;;;8.70;99.90;;;;;;4994135;28;20467;-87
2021/04/01 18:30:50;;;;;;;9.68;3.47;;;8.70;99.90;;;;;;4993843;28;20086;-87
2021/04/01 18:33:20;;;;;;;9.13;3.17;;;8.70;99.90;;;;;;4989774;28;20070;-86
2021/04/01 18:35:51;;;;;;;8.40;3.20;;;8.60;99.90;;;;;;4974197;28;20197;-86
2021/04/01 18:38:21;;;;;;;10.80;3.22;;;8.60;99.90;;;;;;4974507;28;20409;-87
2021/04/01 18:40:50;;;;;;;8.77;3.85;;;8.50;99.90;;;;;;4974319;28;20054;-87
2021/04/01 18:43:17;;;;;;;8.38;3.17;;;8.50;99.90;;;;;;4974522;28;20054;-86
2021/04/01 18:45:51;;;;;;;5.50;3.72;;;8.50;99.90;;;;;;4974172;28;20105;-85
2021/04/01 18:48:24;;;;;;;7.63;4.20;;;8.40;99.90;;;;;;4974383;28;20086;-87
2021/04/01 18:50:55;;;;;;;10.88;4.10;;;8.40;99.90;;;;;;4974474;28;20062;-87
2021/04/01 18:53:25;;;;;;;8.20;4.78;;;8.40;99.90;;;;;;4985200;28;20378;-87
2021/04/01 18:56:00;;;;;;;9.88;3.45;;;8.30;99.90;;;;;;4995435;28;20053;-87
2021/04/01 18:58:29;;;;;;;;;;;8.30;99.90;;;;;;4996044;28;20163;-86
2021/04/01 19:00:57;;;;;;;6.28;3.40;;;8.20;99.90;;;;;;4994803;28;20310;-86
2021/04/01 19:03:25;;;;;;;9.63;3.15;;;8.20;99.90;;;;;;4995063;28;20451;-86
2021/04/01 19:05:54;;;;;;;7.63;3.70;;;8.20;99.90;;;;;;4995050;28;20197;-87
2021/04/01 19:08:26;;;;;;;8.95;3.85;;;8.20;99.90;;;;;;4995108;28;20476;-87
2021/04/01 19:11:37;;;;;;;10.73;3.47;;;8.10;99.90;;;;;;4995090;28;20434;-83
2021/04/01 19:24:41;;;;;;;7.88;3.03;;;7.80;99.90;;;;;;4998959;28;20112;-82
2021/04/01 19:27:08;;;;;;;9.38;4.45;;;7.80;99.90;;;;;;4995412;28;20108;-74
2021/04/01 19:29:34;;;;;;;9.20;4.75;;;7.80;99.90;;;;;;4995780;28;20455;-77
2021/04/01 19:32:01;;;;;;;11.68;4.15;;;7.70;99.90;;;;;;4994829;28;20058;-77
2021/04/01 19:34:28;;;;;;;11.35;3.53;;;7.70;99.90;;;;;;4994454;28;20055;-75
2021/04/01 19:36:55;;;;;;;7.30;3.28;;;7.70;99.90;;;;;;4994604;28;20080;-79
2021/04/01 19:39:22;;;;;;;9.90;3.63;;;7.60;99.90;;;;;;4995100;28;20116;-78
2021/04/01 19:41:51;;;;;;;8.65;3.33;;;7.60;99.90;;;;;;4994716;28;20046;-78
2021/04/01 19:44:18;;;;;;;4.38;2.83;;;7.60;99.90;;;;;;4999916;28;20046;-85
2021/04/01 19:46:47;;;;;;;13.50;4.15;;;7.50;99.90;;;;;;5004749;28;20050;-85
2021/04/01 19:49:14;;;;;;;8.15;3.17;;;7.50;99.90;;;;;;5003673;28;20054;-88
2021/04/01 19:51:42;;;;;;;11.82;3.65;;;7.50;99.90;;;;;;4996327;28;20050;-88
